Time;durP1;ratioP1;P1;durP2;ratioP2;P2;SDS_P1;SDS_P2;PMS_P1;PMS_P2;Temp;Humidity;BMP_temperature;BMP_pressure;BME280_temperature;BME280_humidity;BME280_pressure;Samples;Min_cycle;Max_cycle;Signal;HPM_P1;HPM_P2
2021/04/08 00:02:13;;;;;;;17.27;10.70;;;;;;;2.78;63.62;98741.31;1808603;79;21539;-87
2021/04/08 00:04:40;;;;;;;15.83;10.48;;;;;;;2.79;63.49;98744.20;1808376;79;21567;-86
2021/04/08 00:07:07;;;;;;;16.57;10.78;;;;;;;2.81;63.39;98747.33;1808473;79;21559;-86
2021/04/08 00:09:33;;;;;;;16.90;11.27;;;;;;;2.85;63.27;98743.38;1808548;79;21562;-85
2021/04/08 00:12:00;;;;;;;17.32;10.63;;;;;;;2.91;63.12;98743.91;1808449;79;21698;-84
2021/04/08 00:14:27;;;;;;;18.25;11.12;;;;;;;2.97;63.00;98745.98;1808659;79;21270;-85
2021/04/08 00:16:54;;;;;;;17.37;11.40;;;;;;;2.99;62.85;98742.40;1808323;79;21563;-85
2021/04/08 00:19:20;;;;;;;17.75;10.70;;;;;;;3.04;62.73;98746.73;1808457;79;21536;-84
2021/04/08 00:21:47;;;;;;;16.37;10.78;;;;;;;3.06;62.60;98746.61;1808314;79;21587;-85
2021/04/08 00:24:14;;;;;;;16.15;10.40;;;;;;;3.07;62.50;98746.05;1808598;79;21140;-84
2021/04/08 00:26:40;;;;;;;17.48;11.12;;;;;;;3.09;62.41;98746.48;1808699;79;21108;-84
2021/04/08 00:29:07;;;;;;;15.75;10.08;;;;;;;3.13;62.32;98746.00;1808376;79;21104;-84
2021/04/08 00:31:33;;;;;;;13.62;9.58;;;;;;;3.15;62.20;98742.98;1808353;79;21690;-85
2021/04/08 00:34:00;;;;;;;14.33;8.95;;;;;;;3.14;62.10;98742.75;1808113;79;21117;-84
2021/04/08 00:36:27;;;;;;;12.88;8.98;;;;;;;3.10;62.02;98741.33;1808349;79;21140;-86
2021/04/08 00:38:53;;;;;;;14.98;9.33;;;;;;;3.06;61.98;98741.81;1808564;79;21243;-85
2021/04/08 00:41:20;;;;;;;12.28;8.70;;;;;;;3.03;61.92;98742.51;1808491;79;21270;-85
2021/04/08 00:43:46;;;;;;;14.73;9.50;;;;;;;2.99;61.84;98741.05;1808384;79;21262;-87
2021/04/08 00:46:13;;;;;;;12.28;8.73;;;;;;;2.96;61.92;98746.34;1808384;79;21132;-86
2021/04/08 00:48:39;;;;;;;15.32;9.23;;;;;;;2.89;61.84;98749.60;1808413;79;21120;-86
2021/04/08 00:51:06;;;;;;;14.80;8.43;;;;;;;2.85;61.92;98740.13;1808270;78;21155;-86
2021/04/08 00:53:33;;;;;;;13.72;8.85;;;;;;;2.82;61.95;98739.48;1808532;79;21136;-86
2021/04/08 00:56:00;;;;;;;14.68;8.80;;;;;;;2.80;62.04;98735.02;1808486;79;21685;-85
2021/04/08 00:58:26;;;;;;;14.47;8.73;;;;;;;2.81;62.15;98732.58;1785672;79;21144;-85
2021/04/08 01:00:53;;;;;;;15.15;9.23;;;;;;;2.82;62.20;98741.39;1808353;79;21163;-86
2021/04/08 01:03:21;;;;;;;18.10;11.55;;;;;;;2.79;62.33;98740.74;1808385;79;21262;-87
2021/04/08 01:05:48;;;;;;;18.05;11.63;;;;;;;2.73;62.58;98738.88;1808283;79;21278;-86
2021/04/08 01:08:15;;;;;;;20.72;11.90;;;;;;;2.71;62.52;98747.81;1808329;79;21654;-86
2021/04/08 01:10:43;;;;;;;17.80;11.35;;;;;;;2.64;62.50;98745.70;1808625;79;21678;-86
2021/04/08 01:13:11;;;;;;;19.23;12.58;;;;;;;2.62;62.57;98752.56;1808766;79;21100;-86
2021/04/08 01:15:37;;;;;;;;;;;;;;;2.61;62.47;98751.76;1811385;79;21666;-85
2021/04/08 01:18:07;;;;;;;29.18;17.15;;;;;;;2.59;62.44;98747.86;1809023;79;20221;-86
2021/04/08 01:20:40;;;;;;;29.40;17.37;;;;;;;2.54;62.39;98759.63;1808326;79;21120;-86
2021/04/08 01:23:30;;;;;;;27.52;15.25;;;;;;;2.48;62.66;98760.97;1808090;79;21274;-86
2021/04/08 01:26:21;;;;;;;19.02;11.08;;;;;;;2.51;62.76;98764.34;1808384;79;21128;-86
2021/04/08 01:28:51;;;;;;;16.07;10.72;;;;;;;2.53;62.60;98762.08;1778815;79;21151;-86
2021/04/08 01:31:17;;;;;;;16.77;10.13;;;;;;;2.50;62.53;98756.63;1808266;79;21270;-85
2021/04/08 01:33:50;;;;;;;16.32;11.22;;;;;;;2.49;62.54;98749.72;1808328;79;21261;-85
2021/04/08 01:36:21;;;;;;;19.45;11.00;;;;;;;2.47;62.65;98755.97;1808262;79;21553;-86
2021/04/08 01:39:00;;;;;;;15.95;10.35;;;;;;;2.50;62.72;98760.64;1808354;79;21298;-85
2021/04/08 01:41:27;;;;;;;15.53;10.32;;;;;;;2.52;62.70;98758.41;1792827;79;21297;-86
2021/04/08 01:43:55;;;;;;;18.05;11.60;;;;;;;2.55;62.74;98760.41;1808619;79;21293;-85
2021/04/08 01:46:23;;;;;;;19.45;12.13;;;;;;;2.58;62.68;98755.70;1808068;79;21270;-86
2021/04/08 01:48:50;;;;;;;19.85;13.18;;;;;;;2.56;62.81;98755.25;1808387;79;22039;-86
2021/04/08 01:51:17;;;;;;;21.33;12.80;;;;;;;2.53;62.86;98751.92;1808336;79;21346;-86
2021/04/08 01:53:47;;;;;;;23.52;13.93;;;;;;;2.45;62.77;98745.58;1808168;79;21250;-85
2021/04/08 01:56:13;;;;;;;23.42;14.07;;;;;;;2.38;62.84;98757.45;1808321;79;21273;-85
2021/04/08 01:58:40;;;;;;;23.65;14.50;;;;;;;2.25;62.94;98751.35;1808509;79;21579;-86
2021/04/08 02:01:06;;;;;;;26.02;14.85;;;;;;;2.17;63.22;98762.98;1808530;79;21706;-86
2021/04/08 02:03:33;;;;;;;24.67;14.50;;;;;;;2.16;63.35;98761.44;1808413;79;21674;-86
2021/04/08 02:06:00;;;;;;;23.05;14.25;;;;;;;2.15;63.42;98762.53;1760516;79;21104;-88
2021/04/08 02:08:27;;;;;;;21.65;13.38;;;;;;;2.12;63.49;98755.95;1808428;79;21120;-84
2021/04/08 02:10:54;;;;;;;19.70;11.83;;;;;;;2.05;63.53;98761.13;1808614;79;21289;-84
2021/04/08 02:13:21;;;;;;;16.45;10.75;;;;;;;1.96;63.54;98759.92;1808162;79;21258;-84
2021/04/08 02:15:47;;;;;;;19.65;11.95;;;;;;;1.88;63.62;98762.16;1808305;79;21289;-80
2021/04/08 02:18:19;;;;;;;18.33;12.20;;;;;;;1.84;63.80;98759.15;1808610;79;21128;-81
2021/04/08 02:20:48;;;;;;;17.52;12.40;;;;;;;1.79;63.90;98757.47;1807984;79;21164;-80
2021/04/08 02:23:17;;;;;;;22.25;13.03;;;;;;;1.79;63.96;98758.81;1808277;79;21281;-81
2021/04/08 02:25:44;;;;;;;22.22;13.72;;;;;;;1.75;64.10;98753.92;1808137;79;21701;-81
2021/04/08 02:28:10;;;;;;;19.55;12.23;;;;;;;1.70;64.06;98760.84;1808320;79;21105;-81
2021/04/08 02:30:46;;;;;;;18.50;12.40;;;;;;;1.68;64.13;98768.42;1808532;79;21155;-81
2021/04/08 02:33:16;;;;;;;18.35;12.98;;;;;;;1.65;64.10;98769.09;1808261;79;21287;-80
2021/04/08 02:35:43;;;;;;;19.17;12.98;;;;;;;1.57;64.15;98772.10;1805638;79;21290;-80
2021/04/08 02:38:10;;;;;;;23.38;14.98;;;;;;;1.52;64.25;98772.32;1808244;79;21265;-80
2021/04/08 02:40:36;;;;;;;24.63;16.10;;;;;;;1.52;64.30;98775.00;1808297;79;21294;-80
2021/04/08 02:43:04;;;;;;;23.55;14.98;;;;;;;1.50;64.34;98785.25;1807789;79;21107;-80
2021/04/08 02:45:30;;;;;;;20.68;13.40;;;;;;;1.50;64.35;98778.56;1808041;79;21152;-80
2021/04/08 02:47:57;;;;;;;19.12;12.68;;;;;;;1.48;64.35;98779.47;1808559;79;21275;-81
2021/04/08 02:50:24;;;;;;;18.05;11.63;;;;;;;1.50;64.36;98784.72;1808544;79;21290;-81
2021/04/08 02:53:00;;;;;;;15.65;10.20;;;;;;;1.51;64.27;98786.27;1823188;79;21143;-81
2021/04/08 02:55:28;;;;;;;11.80;8.80;;;;;;;1.52;64.11;98784.36;1820606;79;21143;-80
2021/04/08 02:58:03;;;;;;;14.90;10.20;;;;;;;1.49;64.00;98783.70;1823079;79;21254;-80
2021/04/08 03:00:32;;;;;;;16.42;9.85;;;;;;;1.47;64.03;98786.73;1822842;79;21574;-80
2021/04/08 03:03:02;;;;;;;15.83;9.48;;;;;;;1.45;64.08;98783.59;1823130;79;21134;-81
2021/04/08 03:05:28;;;;;;;14.13;9.70;;;;;;;1.42;64.02;98785.61;1822922;79;21124;-80
2021/04/08 03:07:55;;;;;;;16.30;9.85;;;;;;;1.39;63.98;98783.59;1823704;79;21151;-80
2021/04/08 03:10:22;;;;;;;14.10;9.63;;;;;;;1.37;63.97;98783.70;1823193;79;21237;-81
2021/04/08 03:12:50;;;;;;;14.47;9.13;;;;;;;1.35;64.11;98790.72;1793772;79;21143;-81
2021/04/08 03:15:24;;;;;;;13.45;9.38;;;;;;;1.37;64.08;98791.73;1823191;79;21135;-81
2021/04/08 03:17:51;;;;;;;13.68;8.60;;;;;;;1.33;64.01;98792.38;1822857;79;21088;-80
2021/04/08 03:20:18;;;;;;;15.08;8.58;;;;;;;1.31;63.98;98789.83;1823260;79;21140;-81
2021/04/08 03:22:45;;;;;;;12.33;8.80;;;;;;;1.32;63.99;98796.73;1823161;79;21589;-81
2021/04/08 03:25:12;;;;;;;11.22;7.95;;;;;;;1.33;63.95;98796.95;1823284;79;21566;-81
2021/04/08 03:27:38;;;;;;;11.37;8.13;;;;;;;1.34;63.86;98793.17;1823306;79;21692;-80
2021/04/08 03:30:09;;;;;;;11.77;7.83;;;;;;;1.32;63.88;98800.75;1823399;79;21115;-81
2021/04/08 03:32:35;;;;;;;12.75;8.33;;;;;;;1.31;63.77;98801.88;1822517;79;21266;-81
2021/04/08 03:35:02;;;;;;;11.63;8.00;;;;;;;1.30;63.88;98804.30;1823316;79;21139;-81
2021/04/08 03:37:28;;;;;;;12.60;8.53;;;;;;;1.31;63.89;98812.57;1823461;79;21158;-81
2021/04/08 03:39:55;;;;;;;13.83;7.70;;;;;;;1.32;63.85;98809.55;1823179;79;21598;-81
2021/04/08 03:42:22;;;;;;;12.43;7.62;;;;;;;1.33;63.75;98812.44;1823237;79;21123;-82
2021/04/08 03:44:50;;;;;;;12.03;8.35;;;;;;;1.33;63.68;98821.03;1823546;79;21566;-81
2021/04/08 03:47:16;;;;;;;14.53;8.93;;;;;;;1.32;63.64;98819.47;1823294;79;21143;-81
2021/04/08 03:49:43;;;;;;;13.22;8.15;;;;;;;1.33;63.63;98821.03;1823031;79;21090;-81
2021/04/08 03:52:10;;;;;;;11.50;7.93;;;;;;;1.34;63.60;98821.27;1823330;79;21150;-82
2021/04/08 03:54:37;;;;;;;;;;;;;;;1.36;63.54;98817.69;1825884;79;21136;-84
2021/04/08 03:57:06;;;;;;;12.40;7.83;;;;;;;1.40;63.39;98816.48;1823611;79;20126;-83
2021/04/08 03:59:32;;;;;;;13.40;8.35;;;;;;;1.45;63.09;98822.95;1823212;79;21570;-82
2021/04/08 04:01:59;;;;;;;14.63;8.15;;;;;;;1.47;63.01;98825.53;1823053;79;21115;-82
2021/04/08 04:04:26;;;;;;;14.63;8.33;;;;;;;1.53;62.93;98825.53;1823390;79;21138;-82
2021/04/08 04:06:54;;;;;;;13.60;8.03;;;;;;;1.59;62.79;98825.31;1823318;79;21131;-82
2021/04/08 04:09:20;;;;;;;11.75;8.50;;;;;;;1.67;62.73;98823.08;1823330;79;21146;-83
2021/04/08 04:11:48;;;;;;;13.00;8.48;;;;;;;1.76;62.56;98828.53;1793648;79;21127;-83
2021/04/08 04:14:16;;;;;;;13.25;7.90;;;;;;;1.87;62.49;98827.53;1823134;79;21563;-81
2021/04/08 04:16:47;;;;;;;10.93;7.42;;;;;;;1.97;62.28;98831.66;1823260;79;21123;-82
2021/04/08 04:19:13;;;;;;;14.47;8.43;;;;;;;2.09;61.97;98820.92;1823191;79;21155;-81
2021/04/08 04:21:40;;;;;;;12.37;7.55;;;;;;;2.23;61.53;98827.27;1823160;79;21143;-81
2021/04/08 04:24:09;;;;;;;12.25;8.10;;;;;;;2.36;61.29;98832.83;1823183;79;21131;-82
2021/04/08 04:26:36;;;;;;;9.30;7.40;;;;;;;2.52;61.14;98836.14;1823189;79;21139;-83
2021/04/08 04:29:03;;;;;;;11.88;7.42;;;;;;;2.65;60.61;98840.35;1823524;79;21117;-82
2021/04/08 04:31:34;;;;;;;10.58;7.47;;;;;;;2.76;60.29;98836.06;1823216;79;21131;-82
2021/04/08 04:34:04;;;;;;;11.00;7.30;;;;;;;2.88;59.99;98840.59;1823174;79;21159;-81
2021/04/08 04:36:34;;;;;;;12.45;8.08;;;;;;;2.90;59.72;98846.40;1822971;79;21159;-81
2021/04/08 04:39:01;;;;;;;13.08;8.20;;;;;;;2.89;59.52;98846.97;1823151;79;21554;-82
2021/04/08 04:41:28;;;;;;;12.80;7.85;;;;;;;2.91;59.36;98849.29;1823361;79;21148;-82
2021/04/08 04:43:54;;;;;;;11.22;7.60;;;;;;;2.87;59.10;98849.20;1823280;79;21549;-82
2021/04/08 04:46:21;;;;;;;14.90;9.20;;;;;;;2.94;59.09;98843.80;1823130;79;21131;-83
2021/04/08 04:48:47;;;;;;;13.05;8.20;;;;;;;3.14;58.91;98843.36;1823268;79;21151;-84
2021/04/08 04:51:14;;;;;;;10.90;8.18;;;;;;;3.36;58.36;98846.06;1820997;79;21124;-83
2021/04/08 04:53:40;;;;;;;10.80;7.70;;;;;;;3.59;57.92;98851.05;1808386;79;21534;-83
2021/04/08 04:56:07;;;;;;;12.40;8.10;;;;;;;3.80;57.39;98849.45;1808105;79;21132;-83
2021/04/08 04:58:34;;;;;;;10.75;8.33;;;;;;;3.97;56.95;98849.07;1808390;79;21116;-82
2021/04/08 05:01:00;;;;;;;13.10;8.18;;;;;;;4.18;56.57;98854.16;1808346;79;21139;-83
2021/04/08 05:03:27;;;;;;;13.58;8.18;;;;;;;4.41;56.01;98851.57;1808217;79;21582;-83
2021/04/08 05:05:53;;;;;;;10.65;7.45;;;;;;;4.63;55.36;98851.45;1808386;79;21128;-83
2021/04/08 05:08:20;;;;;;;14.28;7.58;;;;;;;4.84;54.86;98855.72;1808739;79;21132;-84
2021/04/08 05:10:46;;;;;;;12.63;8.15;;;;;;;5.06;54.13;98858.25;1808171;79;21140;-84
2021/04/08 05:13:13;;;;;;;11.08;7.70;;;;;;;5.23;53.52;98867.22;1808179;79;21140;-86
2021/04/08 05:15:39;;;;;;;12.30;7.37;;;;;;;5.37;53.08;98864.00;1808396;79;21148;-85
2021/04/08 05:18:06;;;;;;;12.37;7.83;;;;;;;5.66;52.13;98874.70;1808181;79;21167;-86
2021/04/08 05:20:33;;;;;;;10.45;7.45;;;;;;;5.66;52.13;98874.70;1808289;79;21147;-85
2021/04/08 05:22:59;;;;;;;11.53;7.62;;;;;;;5.83;51.83;98873.44;1808346;79;21125;-87
2021/04/08 05:25:26;;;;;;;9.13;7.08;;;;;;;5.95;51.48;98870.59;1808210;79;21719;-89
2021/04/08 05:27:52;;;;;;;9.65;6.87;;;;;;;6.11;51.03;98885.83;1808606;79;21717;-89
2021/04/08 05:30:19;;;;;;;10.65;7.10;;;;;;;6.18;50.74;98884.60;1808308;79;21132;-90
2021/04/08 05:32:46;;;;;;;11.05;7.20;;;;;;;6.30;50.15;98881.72;1808160;79;21167;-87
2021/04/08 05:35:13;;;;;;;11.33;7.33;;;;;;;6.44;50.03;98883.83;1808284;79;21266;-82
2021/04/08 05:37:40;;;;;;;9.65;6.97;;;;;;;6.69;49.69;98882.81;1808835;79;21120;-91
2021/04/08 05:40:08;;;;;;;10.40;7.08;;;;;;;6.96;49.53;98882.76;1809209;79;21262;-88
2021/04/08 05:42:35;;;;;;;9.83;6.90;;;;;;;7.31;49.68;98890.45;1809031;79;21321;-87
2021/04/08 05:45:02;;;;;;;9.20;6.53;;;;;;;7.75;47.91;98895.15;1808768;79;21277;-89
2021/04/08 05:47:28;;;;;;;11.57;7.10;;;;;;;7.96;47.08;98893.17;1808530;79;21678;-87
2021/04/08 05:49:55;;;;;;;9.68;6.78;;;;;;;8.12;46.46;98897.74;1808049;79;21797;-84
2021/04/08 05:52:21;;;;;;;8.80;6.03;;;;;;;8.20;45.99;98896.64;1815827;79;21119;-87
2021/04/08 05:54:48;;;;;;;9.48;6.45;;;;;;;8.26;45.66;98897.06;1823389;79;21127;-87
2021/04/08 05:57:15;;;;;;;8.70;6.00;;;;;;;8.28;45.46;98896.70;1823280;79;21597;-88
2021/04/08 05:59:41;;;;;;;11.35;6.30;;;;;;;8.38;45.05;98896.01;1823158;79;21413;-83
2021/04/08 06:02:08;;;;;;;8.93;5.90;;;;;;;8.54;44.52;98899.78;1823189;79;21151;-85
2021/04/08 06:04:35;;;;;;;8.75;5.80;;;;;;;9.24;43.40;98897.19;1823080;79;21134;-85
2021/04/08 06:07:01;;;;;;;7.20;5.33;;;;;;;10.51;41.27;98888.75;1823345;79;21139;-89
2021/04/08 06:09:28;;;;;;;7.20;5.42;;;;;;;11.37;39.17;98894.41;1823316;79;21096;-87
2021/04/08 06:11:55;;;;;;;10.23;6.10;;;;;;;12.11;37.75;98895.08;1823526;79;21163;-86
2021/04/08 06:14:23;;;;;;;10.77;6.10;;;;;;;13.40;36.04;98893.69;1823391;79;21127;-88
2021/04/08 06:16:50;;;;;;;8.53;5.55;;;;;;;13.59;35.26;98893.02;1822860;79;21182;-89
2021/04/08 06:19:16;;;;;;;9.03;6.20;;;;;;;12.64;35.87;98900.02;1823009;79;21246;-90
2021/04/08 06:21:43;;;;;;;8.05;5.87;;;;;;;11.45;37.28;98902.72;1823191;79;21154;-88
2021/04/08 06:24:10;;;;;;;8.28;6.08;;;;;;;10.71;38.26;98896.45;1822974;79;21257;-88
2021/04/08 06:26:36;;;;;;;9.68;5.92;;;;;;;10.02;38.99;98906.61;1823432;79;21143;-89
2021/04/08 06:29:03;;;;;;;8.23;5.58;;;;;;;9.91;39.26;98905.25;1823447;79;21120;-88
2021/04/08 06:31:29;;;;;;;11.25;6.92;;;;;;;10.77;38.64;98909.81;1823336;79;21143;-87
2021/04/08 06:33:57;;;;;;;11.20;6.20;;;;;;;11.47;37.52;98916.11;1823399;79;21165;-87
2021/04/08 06:36:24;;;;;;;10.53;5.95;;;;;;;11.37;37.34;98914.80;1823146;79;21134;-87
2021/04/08 06:38:51;;;;;;;7.57;5.40;;;;;;;11.03;37.74;98919.44;1823352;79;21111;-87
2021/04/08 06:41:17;;;;;;;8.48;6.22;;;;;;;11.01;38.23;98917.69;1823196;79;21569;-88
2021/04/08 06:43:45;;;;;;;9.28;5.67;;;;;;;10.73;38.41;98918.56;1823305;79;21720;-89
2021/04/08 06:46:15;;;;;;;8.98;5.72;;;;;;;10.01;38.94;98922.67;1823109;79;21539;-83
2021/04/08 06:48:59;;;;;;;9.35;6.33;;;;;;;9.39;40.16;98921.05;1794118;79;21116;-84
2021/04/08 06:51:29;;;;;;;10.50;6.08;;;;;;;8.95;40.44;98926.13;1823074;79;21107;-83
2021/04/08 06:53:55;;;;;;;9.95;6.25;;;;;;;8.52;41.00;98932.66;1793963;79;21158;-83
2021/04/08 06:56:22;;;;;;;11.53;6.55;;;;;;;8.29;41.27;98930.72;1823121;79;21127;-88
2021/04/08 06:58:49;;;;;;;10.58;6.78;;;;;;;8.06;41.40;98933.06;1822888;79;21142;-86
2021/04/08 07:01:18;;;;;;;11.40;6.28;;;;;;;7.86;41.88;98939.27;1823210;79;21586;-85
2021/04/08 07:03:43;;;;;;;9.43;5.95;;;;;;;7.72;42.25;98937.77;1823144;79;21138;-86
2021/04/08 07:06:10;;;;;;;9.13;5.97;;;;;;;7.54;42.37;98939.72;1823361;79;21130;-83
2021/04/08 07:08:37;;;;;;;8.35;5.83;;;;;;;7.37;42.48;98952.48;1822980;79;21218;-83
2021/04/08 07:11:03;;;;;;;9.30;6.60;;;;;;;7.18;42.91;98953.41;1823588;79;21132;-85
2021/04/08 07:13:30;;;;;;;8.05;6.10;;;;;;;7.11;43.09;98951.39;1823105;79;21126;-90
2021/04/08 07:15:57;;;;;;;7.65;5.53;;;;;;;7.10;43.27;98961.23;1823427;79;21142;-84
2021/04/08 07:18:24;;;;;;;11.20;6.30;;;;;;;7.11;43.42;98958.14;1823327;79;21138;-88
2021/04/08 07:20:53;;;;;;;8.95;5.80;;;;;;;7.04;43.43;98964.82;1823243;79;21131;-87
2021/04/08 07:23:20;;;;;;;8.88;6.10;;;;;;;6.93;43.72;98965.27;1822797;79;21131;-87
2021/04/08 07:26:08;;;;;;;8.20;6.10;;;;;;;6.90;43.73;98963.27;1823343;79;21565;-89
2021/04/08 07:28:37;;;;;;;;;;;;;;;6.80;43.69;98966.05;1825979;79;21167;-87
2021/04/08 07:31:26;;;;;;;9.40;6.33;;;;;;;6.67;44.16;98962.00;1822916;79;20136;-86
2021/04/08 07:33:54;;;;;;;8.50;5.90;;;;;;;6.66;44.17;98977.99;1823159;79;21538;-87
2021/04/08 07:36:28;;;;;;;8.58;6.55;;;;;;;6.47;44.46;98982.14;1823319;79;21562;-87
2021/04/08 07:38:55;;;;;;;9.38;6.62;;;;;;;6.25;45.09;98990.44;1823278;79;21139;-88
2021/04/08 07:41:24;;;;;;;9.53;7.17;;;;;;;6.05;46.37;98989.73;1823275;79;21135;-90
2021/04/08 07:43:58;;;;;;;8.58;6.58;;;;;;;5.85;47.20;98995.14;1821493;79;21159;-89
2021/04/08 07:46:32;;;;;;;9.70;6.83;;;;;;;5.78;47.69;99000.39;1823317;79;21099;-88
2021/04/08 07:48:59;;;;;;;10.25;7.60;;;;;;;5.69;48.13;98995.23;1823149;79;21138;-89
2021/04/08 07:51:31;;;;;;;9.48;6.50;;;;;;;5.66;48.70;98997.30;1823317;79;21159;-88
2021/04/08 07:54:13;;;;;;;10.15;7.12;;;;;;;5.69;49.05;99001.97;1808586;79;21266;-88
2021/04/08 07:56:39;;;;;;;10.48;7.72;;;;;;;5.49;49.53;99005.25;1808250;79;21702;-84
2021/04/08 07:59:21;;;;;;;12.73;8.80;;;;;;;5.26;50.21;99006.51;1808438;79;21128;-84
2021/04/08 08:01:50;;;;;;;10.45;7.67;;;;;;;5.16;50.87;99012.47;1799722;79;21128;-84
2021/04/08 08:04:25;;;;;;;10.93;8.08;;;;;;;5.24;51.92;99022.83;1808435;79;21566;-84
2021/04/08 08:06:53;;;;;;;12.35;8.43;;;;;;;5.24;51.92;99022.83;1808318;79;21717;-90
2021/04/08 08:09:27;;;;;;;11.90;8.85;;;;;;;5.23;52.43;99025.29;1808466;79;21278;-86
2021/04/08 08:11:54;;;;;;;10.38;8.13;;;;;;;5.13;53.29;99033.37;1808447;79;21101;-84
2021/04/08 08:14:35;;;;;;;11.25;8.05;;;;;;;5.10;53.68;99030.02;1808467;79;21254;-82
2021/04/08 08:17:09;;;;;;;12.55;8.93;;;;;;;5.01;54.00;99027.52;1799457;79;21136;-82
2021/04/08 08:19:36;;;;;;;12.58;9.03;;;;;;;4.95;54.71;99043.73;1808287;79;21163;-84
2021/04/08 08:22:03;;;;;;;12.65;8.90;;;;;;;4.92;54.96;99038.28;1808499;79;21120;-84
2021/04/08 08:24:31;;;;;;;12.82;9.33;;;;;;;4.92;55.32;99040.41;1808318;79;21583;-82
2021/04/08 08:26:57;;;;;;;13.22;9.40;;;;;;;4.93;55.58;99046.56;1808428;79;21116;-86
2021/04/08 08:29:29;;;;;;;13.35;9.23;;;;;;;4.96;55.79;99056.05;1808324;79;21274;-83
2021/04/08 08:32:00;;;;;;;11.75;8.85;;;;;;;5.01;56.11;99050.40;1808181;79;21294;-86
2021/04/08 08:34:32;;;;;;;13.55;9.23;;;;;;;5.09;56.01;99048.08;1808812;79;21241;-82
2021/04/08 08:37:03;;;;;;;13.70;9.00;;;;;;;5.29;56.31;99054.30;1808326;79;21262;-85
2021/04/08 08:39:37;;;;;;;13.10;9.00;;;;;;;5.29;56.31;99054.30;1808245;79;21587;-85
2021/04/08 08:42:06;;;;;;;12.53;8.98;;;;;;;5.43;55.60;99058.39;1808290;79;21124;-82
2021/04/08 08:44:33;;;;;;;13.72;9.63;;;;;;;5.46;55.52;99063.09;1808302;79;21128;-85
2021/04/08 08:47:02;;;;;;;13.20;9.00;;;;;;;5.47;55.42;99066.00;1808348;79;21293;-92
2021/04/08 08:49:46;;;;;;;13.03;8.50;;;;;;;5.46;55.88;99066.56;1808948;79;21277;-92
2021/04/08 08:52:21;;;;;;;12.37;8.50;;;;;;;5.49;56.58;99068.55;1807969;79;21155;-84
2021/04/08 08:54:49;;;;;;;11.22;8.18;;;;;;;5.56;55.88;99074.09;1807826;79;21167;-88
2021/04/08 08:57:16;;;;;;;13.48;8.83;;;;;;;5.42;55.87;99078.39;1808772;79;21289;-84
2021/04/08 08:59:45;;;;;;;10.58;7.78;;;;;;;5.28;56.28;99085.03;1808499;79;21286;-85
2021/04/08 09:02:14;;;;;;;10.45;7.60;;;;;;;5.20;56.69;99082.54;1808534;79;21155;-84
2021/04/08 09:04:41;;;;;;;13.57;7.67;;;;;;;5.15;56.68;99089.54;1808925;79;21144;-82
2021/04/08 09:07:09;;;;;;;12.18;8.25;;;;;;;5.01;56.93;99088.08;1808439;79;21159;-83
2021/04/08 09:09:41;;;;;;;10.63;7.58;;;;;;;4.96;57.30;99099.11;1808821;79;21131;-83
2021/04/08 09:12:14;;;;;;;10.75;7.80;;;;;;;4.89;57.54;99090.89;1808079;79;21278;-83
2021/04/08 09:14:36;;;;;;;10.30;7.55;;;;;;;4.76;58.22;99098.27;1785112;79;21131;-83
2021/04/08 09:17:03;;;;;;;11.97;7.92;;;;;;;4.67;58.91;99099.80;1785825;79;21160;-84
2021/04/08 09:19:33;;;;;;;12.75;8.90;;;;;;;4.63;59.44;99100.83;1808046;79;21120;-83
2021/04/08 09:22:07;;;;;;;13.25;9.25;;;;;;;4.63;59.82;99108.33;1808210;79;21590;-82
2021/04/08 09:24:39;;;;;;;14.83;9.80;;;;;;;4.63;60.13;99107.55;1808224;79;21296;-82
2021/04/08 09:27:07;;;;;;;15.08;10.10;;;;;;;4.61;60.37;99113.30;1807792;79;21121;-83
2021/04/08 09:29:46;;;;;;;;;;;;;;;4.58;60.86;99113.19;1811028;79;21258;-83
2021/04/08 09:32:31;;;;;;;11.73;8.73;;;;;;;4.60;60.68;99108.25;1808375;79;20224;-85
2021/04/08 09:35:12;;;;;;;13.00;9.05;;;;;;;4.48;60.83;99107.00;1808348;79;21274;-84
2021/04/08 09:37:48;;;;;;;16.17;9.33;;;;;;;4.54;61.13;99113.67;1808174;79;21262;-84
2021/04/08 09:40:51;;;;;;;13.45;9.58;;;;;;;4.56;61.30;99118.93;1808226;79;21117;-84
2021/04/08 09:43:03;;;;;;;13.20;9.18;;;;;;;4.59;61.69;99118.80;1800278;79;21254;-85
2021/04/08 09:45:30;;;;;;;14.05;9.48;;;;;;;4.62;61.62;99114.07;1808190;79;21262;-84
2021/04/08 09:48:13;;;;;;;14.35;10.70;;;;;;;4.68;62.00;99112.67;1808378;79;21266;-85
2021/04/08 09:50:46;;;;;;;14.10;9.23;;;;;;;4.89;62.23;99115.88;1808155;79;21647;-83
2021/04/08 09:53:13;;;;;;;14.33;9.35;;;;;;;5.03;61.85;99127.55;1808294;79;21266;-82
2021/04/08 09:55:41;;;;;;;13.95;9.63;;;;;;;5.05;61.76;99129.91;1808269;79;21266;-83
2021/04/08 09:58:08;;;;;;;13.32;8.95;;;;;;;5.06;62.06;99120.12;1808247;79;21152;-84
2021/04/08 10:00:35;;;;;;;12.17;8.17;;;;;;;5.17;61.90;99130.36;1808452;79;21322;-83
2021/04/08 10:03:06;;;;;;;11.37;8.90;;;;;;;5.19;61.71;99132.14;1808391;79;21171;-84
2021/04/08 10:05:38;;;;;;;12.47;9.18;;;;;;;5.11;61.98;99130.63;1808058;79;21127;-86
2021/04/08 10:08:05;;;;;;;13.80;10.15;;;;;;;5.11;61.98;99130.63;1808695;79;21132;-84
2021/04/08 10:10:40;;;;;;;11.75;9.00;;;;;;;5.15;61.85;99142.03;1808239;79;21654;-85
2021/04/08 10:13:27;;;;;;;14.93;9.78;;;;;;;5.18;61.94;99138.64;1808101;79;21140;-86
2021/04/08 10:15:55;;;;;;;14.90;10.72;;;;;;;5.22;61.88;99138.17;1807465;79;21176;-84
2021/04/08 10:18:30;;;;;;;14.18;10.82;;;;;;;5.35;62.37;99140.97;1808120;79;21716;-85
2021/04/08 10:20:59;;;;;;;14.23;10.00;;;;;;;5.35;62.37;99140.97;1807825;79;21152;-85
2021/04/08 10:23:40;;;;;;;14.50;10.58;;;;;;;5.42;62.12;99148.41;1808258;79;21148;-85
2021/04/08 10:26:11;;;;;;;13.90;10.60;;;;;;;5.45;62.25;99149.05;1808055;79;21139;-84
2021/04/08 10:28:43;;;;;;;13.93;10.53;;;;;;;5.47;62.40;99148.92;1808192;79;21318;-84
2021/04/08 10:31:29;;;;;;;15.10;11.05;;;;;;;5.54;62.41;99147.74;1808285;79;21266;-84
2021/04/08 10:33:58;;;;;;;14.30;11.00;;;;;;;5.60;62.48;99152.28;1808267;79;21105;-84
2021/04/08 10:36:39;;;;;;;17.12;11.45;;;;;;;5.62;62.39;99155.95;1808301;79;21140;-85
2021/04/08 10:39:21;;;;;;;14.90;11.05;;;;;;;5.62;62.43;99155.42;1808029;79;21270;-84
2021/04/08 10:41:56;;;;;;;15.23;11.30;;;;;;;5.63;63.07;99156.97;1807690;79;21278;-85
2021/04/08 10:44:30;;;;;;;14.98;11.35;;;;;;;5.63;63.07;99156.97;1800945;79;21269;-85
2021/04/08 10:47:00;;;;;;;13.80;10.85;;;;;;;5.78;62.29;99161.53;1807987;79;21685;-85
2021/04/08 10:49:31;;;;;;;14.60;10.98;;;;;;;6.00;61.94;99155.23;1808213;79;21111;-84
2021/04/08 10:52:06;;;;;;;13.20;10.25;;;;;;;6.29;61.49;99159.85;1808088;79;21132;-84
2021/04/08 10:54:34;;;;;;;14.63;11.50;;;;;;;6.49;61.00;99164.64;1808106;78;21282;-82
2021/04/08 10:57:01;;;;;;;14.65;10.25;;;;;;;6.66;60.80;99161.50;1808058;79;21678;-80
2021/04/08 10:59:28;;;;;;;13.75;10.98;;;;;;;6.94;60.22;99158.49;1808087;79;21132;-84
2021/04/08 11:01:55;;;;;;;14.03;9.63;;;;;;;7.28;59.35;99163.48;1808288;79;21314;-86
2021/04/08 11:04:22;;;;;;;13.30;10.15;;;;;;;7.37;59.04;99165.14;1808459;79;21262;-84
2021/04/08 11:06:50;;;;;;;12.13;9.88;;;;;;;7.47;58.69;99165.27;1808359;79;21269;-85
2021/04/08 11:09:23;;;;;;;;;;;;;;;7.46;58.47;99169.70;1810926;79;21262;-85
2021/04/08 11:11:51;;;;;;;13.00;9.25;;;;;;;7.33;58.18;99171.25;1807567;79;20244;-84
2021/04/08 11:14:24;;;;;;;15.83;9.93;;;;;;;7.15;58.38;99175.62;1808269;79;21285;-84
2021/04/08 11:16:52;;;;;;;14.85;9.60;;;;;;;7.08;58.51;99178.19;1808269;79;21124;-84
2021/04/08 11:19:19;;;;;;;11.30;9.35;;;;;;;7.01;58.53;99182.92;1808054;79;21249;-84
2021/04/08 11:21:46;;;;;;;14.13;10.23;;;;;;;6.96;58.50;99177.05;1808175;79;21294;-85
2021/04/08 11:24:12;;;;;;;12.95;8.35;;;;;;;6.92;58.49;99191.04;1808223;79;21143;-84
2021/04/08 11:26:50;;;;;;;12.75;9.08;;;;;;;6.97;58.27;99189.39;1807950;79;21139;-83
2021/04/08 11:29:25;;;;;;;11.45;8.88;;;;;;;7.02;58.28;99193.92;1807857;79;21278;-86
2021/04/08 11:32:03;;;;;;;11.97;9.08;;;;;;;7.23;58.13;99194.04;1808087;79;21140;-82
2021/04/08 11:34:43;;;;;;;11.38;9.08;;;;;;;7.62;57.58;99194.64;1806661;79;21121;-80
2021/04/08 11:37:10;;;;;;;10.13;8.18;;;;;;;8.01;56.86;99188.97;1808173;79;21268;-81
2021/04/08 11:39:36;;;;;;;10.72;8.45;;;;;;;8.25;56.00;99177.48;1808220;79;21301;-82
2021/04/08 11:42:20;;;;;;;12.13;7.97;;;;;;;8.40;55.88;99182.71;1808209;79;21152;-81
2021/04/08 11:44:47;;;;;;;10.00;6.97;;;;;;;8.45;55.60;99182.36;1808038;79;21669;-83